sensor_id;sensor_type;location;lat;lon;timestamp;pressure;altitude;pressure_sealevel;temperature;humidity
66176;BME280;52977;44.816;20.538;2023-08-12T00:01:53;100287.47;;;20.44;62.99
66176;BME280;52977;44.816;20.538;2023-08-12T00:04:19;100256.50;;;20.12;63.64
66176;BME280;52977;44.816;20.538;2023-08-12T00:06:45;100294.56;;;20.42;63.79
66176;BME280;52977;44.816;20.538;2023-08-12T00:09:11;100305.28;;;20.43;63.88
66176;BME280;52977;44.816;20.538;2023-08-12T00:11:38;100294.56;;;20.42;63.82
66176;BME280;52977;44.816;20.538;2023-08-12T00:14:04;100296.03;;;20.36;64.41
66176;BME280;52977;44.816;20.538;2023-08-12T00:16:31;100295.31;;;20.39;64.44
66176;BME280;52977;44.816;20.538;2023-08-12T00:18:58;100301.16;;;20.34;65.11
66176;BME280;52977;44.816;20.538;2023-08-12T00:21:25;100304.25;;;20.28;64.41
66176;BME280;52977;44.816;20.538;2023-08-12T00:23:51;100302.56;;;20.20;65.19
66176;BME280;52977;44.816;20.538;2023-08-12T00:26:17;100237.88;;;19.82;65.13
66176;BME280;52977;44.816;20.538;2023-08-12T00:28:44;100311.72;;;20.24;65.04
66176;BME280;52977;44.816;20.538;2023-08-12T00:31:10;100300.22;;;20.22;64.66
66176;BME280;52977;44.816;20.538;2023-08-12T00:33:36;100299.47;;;20.25;65.07
66176;BME280;52977;44.816;20.538;2023-08-12T00:36:02;100300.31;;;20.29;64.98
66176;BME280;52977;44.816;20.538;2023-08-12T00:38:28;100294.78;;;20.29;65.32
66176;BME280;52977;44.816;20.538;2023-08-12T00:40:54;100285.06;;;20.16;65.08
66176;BME280;52977;44.816;20.538;2023-08-12T00:43:21;100273.56;;;20.14;64.79
66176;BME280;52977;44.816;20.538;2023-08-12T00:45:47;100295.53;;;20.26;64.62
66176;BME280;52977;44.816;20.538;2023-08-12T00:48:14;100297.47;;;20.26;64.83
66176;BME280;52977;44.816;20.538;2023-08-12T00:50:41;100291.16;;;20.25;64.90
66176;BME280;52977;44.816;20.538;2023-08-12T00:53:09;100157.84;;;19.27;65.36
66176;BME280;52977;44.816;20.538;2023-08-12T00:55:36;100271.66;;;19.91;66.58
66176;BME280;52977;44.816;20.538;2023-08-12T00:58:02;100295.56;;;20.03;67.33
66176;BME280;52977;44.816;20.538;2023-08-12T01:00:30;100291.56;;;20.01;67.00
66176;BME280;52977;44.816;20.538;2023-08-12T01:02:57;100260.19;;;19.70;67.85
66176;BME280;52977;44.816;20.538;2023-08-12T01:05:23;100239.75;;;19.55;67.89
66176;BME280;52977;44.816;20.538;2023-08-12T01:07:49;100287.53;;;19.94;67.87
66176;BME280;52977;44.816;20.538;2023-08-12T01:10:16;100263.81;;;19.74;68.21
66176;BME280;52977;44.816;20.538;2023-08-12T01:15:49;100296.59;;;19.91;67.72
66176;BME280;52977;44.816;20.538;2023-08-12T01:18:18;100249.47;;;19.68;67.97
66176;BME280;52977;44.816;20.538;2023-08-12T01:20:44;100258.53;;;19.65;68.27
66176;BME280;52977;44.816;20.538;2023-08-12T01:23:12;100291.47;;;19.93;68.46
66176;BME280;52977;44.816;20.538;2023-08-12T01:25:39;100282.72;;;19.91;68.58
66176;BME280;52977;44.816;20.538;2023-08-12T01:28:05;100197.78;;;19.26;68.69
66176;BME280;52977;44.816;20.538;2023-08-12T01:30:32;100289.84;;;19.92;68.28
66176;BME280;52977;44.816;20.538;2023-08-12T01:33:24;100286.94;;;19.82;68.06
66176;BME280;52977;44.816;20.538;2023-08-12T01:36:02;100299.28;;;19.88;68.35
66176;BME280;52977;44.816;20.538;2023-08-12T01:38:31;100228.94;;;19.46;68.78
66176;BME280;52977;44.816;20.538;2023-08-12T01:41:00;100230.06;;;19.41;69.19
66176;BME280;52977;44.816;20.538;2023-08-12T01:43:27;100287.63;;;19.78;69.08
66176;BME280;52977;44.816;20.538;2023-08-12T01:45:53;100279.47;;;19.62;69.74
66176;BME280;52977;44.816;20.538;2023-08-12T01:48:19;100283.94;;;19.71;69.46
66176;BME280;52977;44.816;20.538;2023-08-12T01:50:48;100297.91;;;19.78;68.90
66176;BME280;52977;44.816;20.538;2023-08-12T01:53:14;100291.09;;;19.72;69.08
66176;BME280;52977;44.816;20.538;2023-08-12T01:55:43;100274.41;;;19.68;69.21
66176;BME280;52977;44.816;20.538;2023-08-12T01:58:09;100293.41;;;19.70;69.66
66176;BME280;52977;44.816;20.538;2023-08-12T02:00:35;100294.94;;;19.67;69.48
66176;BME280;52977;44.816;20.538;2023-08-12T02:03:00;100292.19;;;19.67;70.42
66176;BME280;52977;44.816;20.538;2023-08-12T02:05:26;100255.03;;;19.45;70.11
66176;BME280;52977;44.816;20.538;2023-08-12T02:07:51;100298.59;;;19.71;70.19
66176;BME280;52977;44.816;20.538;2023-08-12T02:10:18;100302.47;;;19.67;70.34
66176;BME280;52977;44.816;20.538;2023-08-12T02:12:43;100294.16;;;19.67;69.76
66176;BME280;52977;44.816;20.538;2023-08-12T02:15:09;100271.78;;;19.52;69.38
66176;BME280;52977;44.816;20.538;2023-08-12T02:17:35;100222.47;;;19.15;69.63
66176;BME280;52977;44.816;20.538;2023-08-12T02:20:00;100305.66;;;19.69;69.66
66176;BME280;52977;44.816;20.538;2023-08-12T02:22:26;100305.66;;;19.69;69.49
66176;BME280;52977;44.816;20.538;2023-08-12T02:24:52;100284.00;;;19.51;69.56
66176;BME280;52977;44.816;20.538;2023-08-12T02:27:20;100271.34;;;19.50;69.37
66176;BME280;52977;44.816;20.538;2023-08-12T02:29:45;100254.38;;;19.28;70.23
66176;BME280;52977;44.816;20.538;2023-08-12T02:32:11;100299.59;;;19.59;70.46
66176;BME280;52977;44.816;20.538;2023-08-12T02:34:36;100296.25;;;19.50;70.38
66176;BME280;52977;44.816;20.538;2023-08-12T02:37:02;100310.22;;;19.57;70.52
66176;BME280;52977;44.816;20.538;2023-08-12T02:39:29;100305.84;;;19.56;70.62
66176;BME280;52977;44.816;20.538;2023-08-12T02:41:55;100214.16;;;18.92;71.12
66176;BME280;52977;44.816;20.538;2023-08-12T02:44:21;100299.25;;;19.41;71.99
66176;BME280;52977;44.816;20.538;2023-08-12T02:46:46;100312.38;;;19.44;71.66
66176;BME280;52977;44.816;20.538;2023-08-12T02:49:12;100241.28;;;19.06;71.23
66176;BME280;52977;44.816;20.538;2023-08-12T02:51:39;100317.41;;;19.39;71.45
66176;BME280;52977;44.816;20.538;2023-08-12T02:54:05;100312.09;;;19.30;72.47
66176;BME280;52977;44.816;20.538;2023-08-12T02:56:30;100280.81;;;19.06;72.25
66176;BME280;52977;44.816;20.538;2023-08-12T02:58:56;100268.16;;;19.05;72.30
66176;BME280;52977;44.816;20.538;2023-08-12T03:01:21;100285.34;;;19.15;72.61
66176;BME280;52977;44.816;20.538;2023-08-12T03:03:47;100246.38;;;18.84;73.02
66176;BME280;52977;44.816;20.538;2023-08-12T03:06:13;100281.19;;;19.05;73.03
66176;BME280;52977;44.816;20.538;2023-08-12T03:08:39;100281.47;;;19.00;73.20
66176;BME280;52977;44.816;20.538;2023-08-12T03:11:05;100267.19;;;18.98;72.66
66176;BME280;52977;44.816;20.538;2023-08-12T03:13:31;100217.78;;;18.57;72.78
66176;BME280;52977;44.816;20.538;2023-08-12T03:15:57;100301.44;;;19.09;73.63
66176;BME280;52977;44.816;20.538;2023-08-12T03:18:23;100318.47;;;19.11;73.68
66176;BME280;52977;44.816;20.538;2023-08-12T03:20:49;100282.28;;;19.00;73.31
66176;BME280;52977;44.816;20.538;2023-08-12T03:23:15;100319.53;;;19.26;73.78
66176;BME280;52977;44.816;20.538;2023-08-12T03:25:42;100262.28;;;18.87;73.58
66176;BME280;52977;44.816;20.538;2023-08-12T03:28:08;100254.59;;;18.81;73.49
66176;BME280;52977;44.816;20.538;2023-08-12T03:30:35;100316.28;;;19.20;74.06
66176;BME280;52977;44.816;20.538;2023-08-12T03:33:02;100301.56;;;19.16;73.87
66176;BME280;52977;44.816;20.538;2023-08-12T03:35:31;100313.44;;;19.17;74.23
66176;BME280;52977;44.816;20.538;2023-08-12T03:37:57;100316.44;;;19.08;74.07
66176;BME280;52977;44.816;20.538;2023-08-12T03:40:23;100329.38;;;19.04;74.23
66176;BME280;52977;44.816;20.538;2023-08-12T03:42:48;100309.19;;;19.03;74.25
66176;BME280;52977;44.816;20.538;2023-08-12T03:45:15;100305.78;;;18.90;74.83
66176;BME280;52977;44.816;20.538;2023-08-12T03:47:41;100298.47;;;18.82;74.56
66176;BME280;52977;44.816;20.538;2023-08-12T03:50:07;100314.19;;;18.94;74.56
66176;BME280;52977;44.816;20.538;2023-08-12T03:52:32;100326.53;;;19.00;74.14
66176;BME280;52977;44.816;20.538;2023-08-12T03:54:58;100320.75;;;18.70;75.13
66176;BME280;52977;44.816;20.538;2023-08-12T03:57:24;100329.34;;;18.84;74.94
66176;BME280;52977;44.816;20.538;2023-08-12T03:59:51;100188.84;;;17.96;74.68
66176;BME280;52977;44.816;20.538;2023-08-12T04:02:16;100293.81;;;18.67;74.73
66176;BME280;52977;44.816;20.538;2023-08-12T04:04:43;100336.59;;;18.89;75.47
66176;BME280;52977;44.816;20.538;2023-08-12T04:07:09;100327.19;;;18.93;75.34
66176;BME280;52977;44.816;20.538;2023-08-12T04:09:35;100332.88;;;19.01;75.34
66176;BME280;52977;44.816;20.538;2023-08-12T04:12:01;100333.81;;;19.08;75.26
66176;BME280;52977;44.816;20.538;2023-08-12T04:14:26;100292.78;;;18.55;74.93
66176;BME280;52977;44.816;20.538;2023-08-12T04:16:52;100336.78;;;18.80;75.57
66176;BME280;52977;44.816;20.538;2023-08-12T04:19:18;100338.25;;;18.93;75.38
66176;BME280;52977;44.816;20.538;2023-08-12T04:21:44;100342.47;;;18.87;75.40
66176;BME280;52977;44.816;20.538;2023-08-12T04:24:12;100335.78;;;18.88;75.33
66176;BME280;52977;44.816;20.538;2023-08-12T04:26:39;100293.16;;;18.73;75.14
66176;BME280;52977;44.816;20.538;2023-08-12T04:29:06;100285.00;;;18.61;75.55
66176;BME280;52977;44.816;20.538;2023-08-12T04:31:35;100288.38;;;18.70;76.09
66176;BME280;52977;44.816;20.538;2023-08-12T04:34:02;100329.31;;;19.00;76.39
66176;BME280;52977;44.816;20.538;2023-08-12T04:36:31;100270.69;;;18.55;74.82
66176;BME280;52977;44.816;20.538;2023-08-12T04:38:59;100198.22;;;17.91;76.00
66176;BME280;52977;44.816;20.538;2023-08-12T04:41:26;100297.75;;;18.46;77.11
66176;BME280;52977;44.816;20.538;2023-08-12T04:43:53;100312.75;;;18.65;76.27
66176;BME280;52977;44.816;20.538;2023-08-12T04:46:23;100341.47;;;18.95;76.34
66176;BME280;52977;44.816;20.538;2023-08-12T04:48:50;100342.72;;;18.98;76.44
66176;BME280;52977;44.816;20.538;2023-08-12T04:51:17;100260.56;;;18.43;75.98
66176;BME280;52977;44.816;20.538;2023-08-12T04:53:43;100345.53;;;19.02;75.76
66176;BME280;52977;44.816;20.538;2023-08-12T04:56:09;100327.38;;;18.85;76.47
66176;BME280;52977;44.816;20.538;2023-08-12T04:58:35;100341.19;;;19.01;76.37
66176;BME280;52977;44.816;20.538;2023-08-12T05:01:01;100341.63;;;19.03;76.09
66176;BME280;52977;44.816;20.538;2023-08-12T05:03:29;100304.22;;;18.73;76.02
66176;BME280;52977;44.816;20.538;2023-08-12T05:05:55;100330.31;;;18.92;75.95
66176;BME280;52977;44.816;20.538;2023-08-12T05:08:25;100342.25;;;18.96;75.97
66176;BME280;52977;44.816;20.538;2023-08-12T05:10:51;100341.63;;;19.03;75.87
66176;BME280;52977;44.816;20.538;2023-08-12T05:13:17;100348.91;;;19.11;75.94
66176;BME280;52977;44.816;20.538;2023-08-12T05:15:46;100303.94;;;18.78;75.59
66176;BME280;52977;44.816;20.538;2023-08-12T05:18:13;100255.97;;;18.51;75.63
66176;BME280;52977;44.816;20.538;2023-08-12T05:20:40;100314.47;;;18.89;75.89
66176;BME280;52977;44.816;20.538;2023-08-12T05:23:07;100321.31;;;18.95;75.80
66176;BME280;52977;44.816;20.538;2023-08-12T05:25:33;100283.72;;;18.74;76.08
66176;BME280;52977;44.816;20.538;2023-08-12T05:27:58;100356.78;;;19.09;77.16
66176;BME280;52977;44.816;20.538;2023-08-12T05:30:24;100297.97;;;18.76;77.07
66176;BME280;52977;44.816;20.538;2023-08-12T05:32:49;100288.81;;;18.72;76.68
66176;BME280;52977;44.816;20.538;2023-08-12T05:35:15;100349.41;;;19.17;76.28
66176;BME280;52977;44.816;20.538;2023-08-12T05:37:41;100324.59;;;19.01;76.05
66176;BME280;52977;44.816;20.538;2023-08-12T05:40:08;100349.16;;;19.25;75.64
66176;BME280;52977;44.816;20.538;2023-08-12T05:42:35;100361.25;;;19.37;75.29
66176;BME280;52977;44.816;20.538;2023-08-12T05:45:01;100362.72;;;19.30;75.76
66176;BME280;52977;44.816;20.538;2023-08-12T05:47:26;100330.63;;;19.06;75.63
66176;BME280;52977;44.816;20.538;2023-08-12T05:49:52;100349.03;;;19.18;75.82
66176;BME280;52977;44.816;20.538;2023-08-12T05:52:17;100368.16;;;19.46;76.01
66176;BME280;52977;44.816;20.538;2023-08-12T05:54:44;100316.56;;;19.15;76.43
66176;BME280;52977;44.816;20.538;2023-08-12T05:57:09;100301.06;;;19.10;75.29
66176;BME280;52977;44.816;20.538;2023-08-12T05:59:35;100356.25;;;19.42;75.84
66176;BME280;52977;44.816;20.538;2023-08-12T06:02:00;100370.59;;;19.48;75.58
66176;BME280;52977;44.816;20.538;2023-08-12T06:04:26;100335.19;;;19.18;75.92
66176;BME280;52977;44.816;20.538;2023-08-12T06:06:52;100325.97;;;19.10;76.04
66176;BME280;52977;44.816;20.538;2023-08-12T06:09:18;100368.69;;;19.52;75.99
66176;BME280;52977;44.816;20.538;2023-08-12T06:11:44;100371.94;;;19.58;74.47
66176;BME280;52977;44.816;20.538;2023-08-12T06:14:11;100368.72;;;19.56;74.47
66176;BME280;52977;44.816;20.538;2023-08-12T06:16:37;100361.00;;;19.65;73.07
66176;BME280;52977;44.816;20.538;2023-08-12T06:19:03;100368.72;;;19.56;74.40
66176;BME280;52977;44.816;20.538;2023-08-12T06:21:29;100363.81;;;19.45;74.80
66176;BME280;52977;44.816;20.538;2023-08-12T06:23:56;100371.88;;;19.54;74.76
66176;BME280;52977;44.816;20.538;2023-08-12T06:26:22;100335.13;;;19.34;74.33
66176;BME280;52977;44.816;20.538;2023-08-12T06:28:48;100373.16;;;19.60;74.45
66176;BME280;52977;44.816;20.538;2023-08-12T06:31:14;100379.81;;;19.56;74.64
66176;BME280;52977;44.816;20.538;2023-08-12T06:33:41;100347.13;;;19.42;74.78
66176;BME280;52977;44.816;20.538;2023-08-12T06:36:07;100381.53;;;19.64;75.60
66176;BME280;52977;44.816;20.538;2023-08-12T06:38:52;100371.47;;;19.75;74.27
66176;BME280;52977;44.816;20.538;2023-08-12T06:41:18;100370.28;;;19.76;75.01
66176;BME280;52977;44.816;20.538;2023-08-12T06:43:44;100368.84;;;19.83;74.83
66176;BME280;52977;44.816;20.538;2023-08-12T06:46:11;100380.38;;;19.85;75.38
66176;BME280;52977;44.816;20.538;2023-08-12T06:48:37;100383.06;;;19.81;76.20
66176;BME280;52977;44.816;20.538;2023-08-12T06:51:03;100287.00;;;19.19;76.61
66176;BME280;52977;44.816;20.538;2023-08-12T06:53:38;100388.34;;;19.90;75.63
66176;BME280;52977;44.816;20.538;2023-08-12T06:56:05;100379.03;;;19.78;76.28
66176;BME280;52977;44.816;20.538;2023-08-12T06:58:31;100383.06;;;19.81;76.14
66176;BME280;52977;44.816;20.538;2023-08-12T07:00:57;100361.22;;;19.56;76.14
66176;BME280;52977;44.816;20.538;2023-08-12T07:03:25;100387.59;;;19.70;76.70
66176;BME280;52977;44.816;20.538;2023-08-12T07:05:55;100338.59;;;19.31;76.88
66176;BME280;52977;44.816;20.538;2023-08-12T07:08:21;100383.66;;;19.71;77.29
66176;BME280;52977;44.816;20.538;2023-08-12T07:10:47;100321.81;;;19.20;77.44
66176;BME280;52977;44.816;20.538;2023-08-12T07:13:14;100304.50;;;19.04;78.28
66176;BME280;52977;44.816;20.538;2023-08-12T07:15:40;100363.22;;;19.36;78.76
66176;BME280;52977;44.816;20.538;2023-08-12T07:18:06;100385.09;;;19.64;78.56
66176;BME280;52977;44.816;20.538;2023-08-12T07:20:32;100321.34;;;19.18;79.27
66176;BME280;52977;44.816;20.538;2023-08-12T07:22:58;100300.69;;;19.12;78.74
66176;BME280;52977;44.816;20.538;2023-08-12T07:25:23;100374.84;;;19.65;78.52
66176;BME280;52977;44.816;20.538;2023-08-12T07:27:49;100396.53;;;19.83;78.95
66176;BME280;52977;44.816;20.538;2023-08-12T07:30:15;100396.91;;;19.81;78.91
66176;BME280;52977;44.816;20.538;2023-08-12T07:32:41;100337.34;;;19.48;79.64
66176;BME280;52977;44.816;20.538;2023-08-12T07:35:06;100396.63;;;19.86;79.42
66176;BME280;52977;44.816;20.538;2023-08-12T07:37:32;100379.03;;;19.78;78.94
66176;BME280;52977;44.816;20.538;2023-08-12T07:39:58;100368.56;;;19.68;78.65
66176;BME280;52977;44.816;20.538;2023-08-12T07:42:23;100388.78;;;19.92;78.50
66176;BME280;52977;44.816;20.538;2023-08-12T07:44:49;100380.59;;;19.76;78.35
66176;BME280;52977;44.816;20.538;2023-08-12T07:47:15;100342.69;;;19.60;78.96
66176;BME280;52977;44.816;20.538;2023-08-12T07:49:44;100384.38;;;19.87;78.52
66176;BME280;52977;44.816;20.538;2023-08-12T07:52:11;100378.84;;;19.87;77.14
66176;BME280;52977;44.816;20.538;2023-08-12T07:54:37;100389.91;;;20.10;77.05
66176;BME280;52977;44.816;20.538;2023-08-12T07:57:03;100400.22;;;20.13;75.69
66176;BME280;52977;44.816;20.538;2023-08-12T07:59:29;100350.69;;;19.85;76.42
66176;BME280;52977;44.816;20.538;2023-08-12T08:01:55;100355.06;;;19.86;74.86
66176;BME280;52977;44.816;20.538;2023-08-12T08:04:22;100393.03;;;20.09;75.69
66176;BME280;52977;44.816;20.538;2023-08-12T08:06:48;100393.53;;;20.14;74.71
66176;BME280;52977;44.816;20.538;2023-08-12T08:09:14;100346.56;;;19.98;75.56
66176;BME280;52977;44.816;20.538;2023-08-12T08:11:40;100368.97;;;20.13;74.98
66176;BME280;52977;44.816;20.538;2023-08-12T08:14:06;100393.44;;;20.34;74.04
66176;BME280;52977;44.816;20.538;2023-08-12T08:16:32;100373.44;;;20.21;73.36
66176;BME280;52977;44.816;20.538;2023-08-12T08:18:59;100379.75;;;20.45;73.62
66176;BME280;52977;44.816;20.538;2023-08-12T08:21:25;100377.34;;;20.43;73.09
66176;BME280;52977;44.816;20.538;2023-08-12T08:23:51;100336.63;;;20.21;72.49
66176;BME280;52977;44.816;20.538;2023-08-12T08:26:17;100381.41;;;20.49;72.42
66176;BME280;52977;44.816;20.538;2023-08-12T08:28:43;100394.25;;;20.61;72.39
66176;BME280;52977;44.816;20.538;2023-08-12T08:31:09;100393.44;;;20.61;73.38
66176;BME280;52977;44.816;20.538;2023-08-12T08:33:34;100346.47;;;20.45;72.23
66176;BME280;52977;44.816;20.538;2023-08-12T08:36:00;100389.38;;;20.78;73.26
66176;BME280;52977;44.816;20.538;2023-08-12T08:38:26;100396.88;;;20.77;74.17
66176;BME280;52977;44.816;20.538;2023-08-12T08:40:53;100386.63;;;20.81;73.45
66176;BME280;52977;44.816;20.538;2023-08-12T08:43:21;100390.66;;;20.84;73.92
66176;BME280;52977;44.816;20.538;2023-08-12T08:45:53;100389.25;;;20.97;71.91
66176;BME280;52977;44.816;20.538;2023-08-12T08:48:20;100371.00;;;20.96;71.78
66176;BME280;52977;44.816;20.538;2023-08-12T08:50:48;100330.59;;;20.69;71.78
66176;BME280;52977;44.816;20.538;2023-08-12T08:53:15;100337.41;;;20.75;72.17
66176;BME280;52977;44.816;20.538;2023-08-12T08:55:42;100383.09;;;21.11;71.55
66176;BME280;52977;44.816;20.538;2023-08-12T08:58:08;100390.31;;;21.20;72.45
66176;BME280;52977;44.816;20.538;2023-08-12T09:00:36;100347.25;;;20.99;72.28
66176;BME280;52977;44.816;20.538;2023-08-12T09:03:04;100357.34;;;21.14;72.89
66176;BME280;52977;44.816;20.538;2023-08-12T09:05:32;100398.56;;;21.46;72.79
66176;BME280;52977;44.816;20.538;2023-08-12T09:08:00;100382.00;;;21.54;71.29
66176;BME280;52977;44.816;20.538;2023-08-12T09:10:28;100389.47;;;21.49;70.15
66176;BME280;52977;44.816;20.538;2023-08-12T09:12:55;100377.91;;;21.44;71.06
66176;BME280;52977;44.816;20.538;2023-08-12T09:15:22;100373.19;;;21.48;70.15
66176;BME280;52977;44.816;20.538;2023-08-12T09:17:48;100362.78;;;21.41;69.06
66176;BME280;52977;44.816;20.538;2023-08-12T09:20:13;100376.09;;;21.59;69.62
66176;BME280;52977;44.816;20.538;2023-08-12T09:22:40;100388.06;;;21.66;69.67
66176;BME280;52977;44.816;20.538;2023-08-12T09:25:08;100377.47;;;21.76;70.03
66176;BME280;52977;44.816;20.538;2023-08-12T09:27:36;100373.03;;;21.71;69.76
66176;BME280;52977;44.816;20.538;2023-08-12T09:30:04;100371.53;;;21.81;69.08
66176;BME280;52977;44.816;20.538;2023-08-12T09:32:30;100370.34;;;21.78;69.54
66176;BME280;52977;44.816;20.538;2023-08-12T09:34:56;100365.31;;;21.95;66.71
66176;BME280;52977;44.816;20.538;2023-08-12T09:37:23;100355.78;;;21.92;66.37
66176;BME280;52977;44.816;20.538;2023-08-12T09:39:53;100310.34;;;21.74;67.21
66176;BME280;52977;44.816;20.538;2023-08-12T09:42:19;100349.84;;;21.97;65.33
66176;BME280;52977;44.816;20.538;2023-08-12T09:44:45;100335.59;;;22.02;64.79
66176;BME280;52977;44.816;20.538;2023-08-12T09:47:12;100321.38;;;22.11;64.50
66176;BME280;52977;44.816;20.538;2023-08-12T09:49:38;100350.47;;;22.28;62.77
66176;BME280;52977;44.816;20.538;2023-08-12T09:52:05;100347.31;;;22.26;63.90
66176;BME280;52977;44.816;20.538;2023-08-12T09:54:33;100354.03;;;22.25;64.55
66176;BME280;52977;44.816;20.538;2023-08-12T09:57:00;100367.56;;;22.27;66.01
66176;BME280;52977;44.816;20.538;2023-08-12T09:59:31;100347.84;;;22.43;61.00
66176;BME280;52977;44.816;20.538;2023-08-12T10:02:02;100352.59;;;22.39;62.68
66176;BME280;52977;44.816;20.538;2023-08-12T10:04:39;100331.94;;;22.40;61.40
66176;BME280;52977;44.816;20.538;2023-08-12T10:07:09;100307.19;;;22.27;61.92
66176;BME280;52977;44.816;20.538;2023-08-12T10:09:39;100313.66;;;22.42;60.80
66176;BME280;52977;44.816;20.538;2023-08-12T10:12:06;100308.94;;;22.50;59.60
66176;BME280;52977;44.816;20.538;2023-08-12T10:14:33;100342.09;;;22.84;56.96
66176;BME280;52977;44.816;20.538;2023-08-12T10:17:00;100279.09;;;22.43;57.37
66176;BME280;52977;44.816;20.538;2023-08-12T10:19:26;100333.75;;;22.91;57.72
66176;BME280;52977;44.816;20.538;2023-08-12T10:21:56;100335.00;;;22.97;58.16
66176;BME280;52977;44.816;20.538;2023-08-12T10:24:42;100309.94;;;22.90;56.87
66176;BME280;52977;44.816;20.538;2023-08-12T10:27:09;100331.47;;;23.04;59.44
66176;BME280;52977;44.816;20.538;2023-08-12T10:29:36;100291.59;;;22.82;60.27
66176;BME280;52977;44.816;20.538;2023-08-12T10:32:02;100320.31;;;23.08;59.21
66176;BME280;52977;44.816;20.538;2023-08-12T10:34:28;100315.97;;;23.07;59.62
66176;BME280;52977;44.816;20.538;2023-08-12T10:36:56;100294.03;;;22.94;58.29
66176;BME280;52977;44.816;20.538;2023-08-12T10:39:26;100309.63;;;23.17;58.10
66176;BME280;52977;44.816;20.538;2023-08-12T10:41:55;100286.09;;;22.96;58.47
66176;BME280;52977;44.816;20.538;2023-08-12T10:44:22;100296.94;;;23.19;59.01
66176;BME280;52977;44.816;20.538;2023-08-12T10:46:52;100297.34;;;23.25;57.74
66176;BME280;52977;44.816;20.538;2023-08-12T10:49:20;100302.13;;;23.35;59.28
66176;BME280;52977;44.816;20.538;2023-08-12T10:51:54;100291.38;;;23.34;56.69
66176;BME280;52977;44.816;20.538;2023-08-12T10:54:24;100288.59;;;23.34;57.75
66176;BME280;52977;44.816;20.538;2023-08-12T11:02:27;100297.34;;;23.40;55.24
66176;BME280;52977;44.816;20.538;2023-08-12T11:05:04;100297.75;;;23.45;53.85
66176;BME280;52977;44.816;20.538;2023-08-12T11:08:02;100272.28;;;23.40;49.83
66176;BME280;52977;44.816;20.538;2023-08-12T11:10:33;100245.22;;;23.26;50.09
66176;BME280;52977;44.816;20.538;2023-08-12T11:13:00;100294.59;;;23.50;50.99
66176;BME280;52977;44.816;20.538;2023-08-12T11:17:55;100277.44;;;23.30;49.71
66176;BME280;52977;44.816;20.538;2023-08-12T11:20:21;100271.09;;;23.41;49.76
66176;BME280;52977;44.816;20.538;2023-08-12T11:22:47;100273.47;;;23.24;49.56
66176;BME280;52977;44.816;20.538;2023-08-12T11:25:14;100287.00;;;23.51;48.95
66176;BME280;52977;44.816;20.538;2023-08-12T11:27:45;100286.66;;;23.60;49.00
66176;BME280;52977;44.816;20.538;2023-08-12T11:30:21;100292.59;;;23.80;46.72
66176;BME280;52977;44.816;20.538;2023-08-12T11:32:54;100267.91;;;23.82;46.48
66176;BME280;52977;44.816;20.538;2023-08-12T11:35:22;100286.25;;;23.97;46.97
66176;BME280;52977;44.816;20.538;2023-08-12T11:37:50;100263.97;;;23.94;47.14
66176;BME280;52977;44.816;20.538;2023-08-12T11:40:19;100246.81;;;23.92;47.36
66176;BME280;52977;44.816;20.538;2023-08-12T11:42:46;100267.88;;;24.25;45.00
66176;BME280;52977;44.816;20.538;2023-08-12T11:45:14;100271.88;;;24.24;46.72
66176;BME280;52977;44.816;20.538;2023-08-12T11:47:40;100271.44;;;24.36;45.44
66176;BME280;52977;44.816;20.538;2023-08-12T11:50:08;100237.59;;;24.27;44.69
66176;BME280;52977;44.816;20.538;2023-08-12T11:52:35;100274.16;;;24.58;43.96
66176;BME280;52977;44.816;20.538;2023-08-12T11:55:02;100273.38;;;24.65;43.97
66176;BME280;52977;44.816;20.538;2023-08-12T11:57:29;100272.56;;;24.64;43.46
66176;BME280;52977;44.816;20.538;2023-08-12T11:59:59;100237.13;;;24.47;44.75
66176;BME280;52977;44.816;20.538;2023-08-12T12:02:26;100217.59;;;24.47;45.71
66176;BME280;52977;44.816;20.538;2023-08-12T12:04:53;100265.31;;;24.81;45.00
66176;BME280;52977;44.816;20.538;2023-08-12T12:07:24;100215.59;;;24.51;45.15
66176;BME280;52977;44.816;20.538;2023-08-12T12:09:54;100237.78;;;24.83;46.63
66176;BME280;52977;44.816;20.538;2023-08-12T12:12:23;100231.00;;;24.84;47.95
66176;BME280;52977;44.816;20.538;2023-08-12T12:14:53;100084.72;;;23.86;46.13
66176;BME280;52977;44.816;20.538;2023-08-12T12:17:24;100209.41;;;24.92;45.71
66176;BME280;52977;44.816;20.538;2023-08-12T12:19:57;100243.50;;;25.32;44.39
66176;BME280;52977;44.816;20.538;2023-08-12T12:22:31;100239.88;;;25.35;43.98
66176;BME280;52977;44.816;20.538;2023-08-12T12:25:00;100213.19;;;25.23;45.61
66176;BME280;52977;44.816;20.538;2023-08-12T12:27:26;100237.41;;;25.45;43.76
66176;BME280;52977;44.816;20.538;2023-08-12T12:29:53;100209.94;;;25.36;45.13
66176;BME280;52977;44.816;20.538;2023-08-12T12:32:20;100236.53;;;25.55;45.54
66176;BME280;52977;44.816;20.538;2023-08-12T12:34:47;100226.50;;;25.61;43.83
66176;BME280;52977;44.816;20.538;2023-08-12T12:37:14;100195.91;;;25.43;43.96
66176;BME280;52977;44.816;20.538;2023-08-12T12:39:40;100199.50;;;25.44;44.06
66176;BME280;52977;44.816;20.538;2023-08-12T12:42:06;100174.81;;;25.35;44.57
66176;BME280;52977;44.816;20.538;2023-08-12T12:44:33;100187.06;;;25.52;44.46
66176;BME280;52977;44.816;20.538;2023-08-12T12:46:59;100192.16;;;25.61;43.92
66176;BME280;52977;44.816;20.538;2023-08-12T12:49:25;100217.47;;;25.84;43.46
66176;BME280;52977;44.816;20.538;2023-08-12T12:51:52;100213.88;;;25.87;44.73